ADDS METAR Data INFO
IDs: Format: Raw Decoded Include TAF

Data at: 1334 UTC 25 Feb 2018

KAEX 251253Z 12010KT 7SM RA OVC100 11/10 A3006 RMK AO2 SLP182 P0017 T01110100
KAEX 251153Z 02005KT 6SM +RA BR FEW012 FEW048 OVC090 12/11 A3008 RMK AO2 SLP190 P0013 60109 70109 T01170106 10228 20111 53014
KAEX 251053Z 09007KT 6SM RA BR FEW036 SCT060 OVC095 12/11 A3004 RMK AO2 SLP175 P0015 T01170111
KAEX 251013Z VRB06KT 5SM RA BR SCT026 OVC038 12/11 A3005 RMK AO2 P0005 T01170106
KAEX 250953Z 01005KT 4SM RA BR FEW009 SCT016 OVC025 11/11 A3004 RMK AO2 SLP176 P0035 T01110106
KAEX 250951Z 03004KT 4SM +RA BR FEW009 BKN018 OVC025 11/11 A3004 RMK AO2 P0035
KAEX 250931Z VRB03KT 2 1/2SM +RA BR FEW006 BKN028 OVC060 11/11 A3004 RMK AO2 P0024 T01110106
KAEX 250905Z 03007KT 3SM +RA BR FEW006 OVC035 11/11 A3002 RMK AO2 LTG DSNT W AND NW P0007 T01110106
KAEX 250853Z 01004KT 2 1/2SM +RA BR FEW006 OVC027 11/11 A3002 RMK AO2 LTG DSNT W SLP169 P0033 60046 T01110111 51018
KAEX 250850Z 08004KT 2 1/2SM +RA BR FEW009 BKN029 OVC039 11/11 A3002 RMK AO2 LTG DSNT W P0031
KAEX 250847Z 04004KT 2 1/2SM +RA BR FEW011 BKN031 OVC040 11/11 A3003 RMK AO2 LTG DSNT W P0028
KAEX 250842Z 02009KT 1 3/4SM +RA BR FEW011 BKN024 OVC040 11/11 A3001 RMK AO2 LTG DSNT W P0025 T01110106
KAEX 250835Z VRB06KT 2SM +RA BR FEW011 BKN018 OVC040 12/11 A3002 RMK AO2 P0018 T01170106
KAEX 250753Z 03008G19KT 8SM -RA FEW028 OVC039 12/11 A2999 RMK AO2 LTG DSNT W-NE PRESFR SLP160 P0010 T01220106
KAEX 250749Z 01012G16KT 8SM -RA FEW021 FEW028 OVC039 13/11 A3000 RMK AO2 LTG DSNT W-NE P0010
KAEX 250653Z 35015KT 7SM RA OVC015 14/12 A2997 RMK AO2 WSHFT 0622 LTG DSNT W RAB0559 SLP151 P0003 T01440122
KAEX 250636Z 34014G22KT 9SM -RA BKN014 OVC020 16/14 A2995 RMK AO2 WSHFT 0622 RAB0559 P0000 T01610139
KAEX 250553Z 19011KT 8SM BKN018 OVC028 23/21 A2994 RMK AO2 SLP141 60000 T02280206 10239 20211 402720206 53001
KAEX 250513Z 20009KT 8SM BKN016 BKN028 OVC100 23/21 A2994 RMK AO2 T02280206
KAEX 250453Z 18009KT 9SM FEW018 BKN100 23/20 A2993 RMK AO2 SLP136 T02280200
KAEX 250353Z 18009KT 9SM BKN110 22/20 A2994 RMK AO2 LTG DSNT NW SLP140 T02220200
KAEX 250253Z 18012KT 9SM SCT020 BKN038 OVC110 23/20 A2994 RMK AO2 RAB11E43 SLP140 P0000 60000 T02280200 53017
KAEX 250204Z 19012KT 10SM SCT021 OVC120 21/20 A2992 RMK AO2 T02110200
KAEX 250153Z 19010KT 10SM BKN022 OVC120 23/20 A2992 RMK AO2 SLP133 T02330200
KAEX 250053Z 19011KT 10SM SCT027 BKN035 23/19 A2990 RMK AO2 PK WND 18027/0004 SLP126 T02330194
KAEX 250039Z 20011G19KT 10SM BKN027 BKN100 24/19 A2990 RMK AO2 PK WND 18027/0004 T02390194
KAEX 242353Z 19011KT 10SM CLR 24/19 A2989 RMK AO2 SLP124 60000 T02390189 10272 20217 51005
KAEX 242253Z 19012G18KT 10SM FEW075 SCT090 SCT110 25/18 A2989 RMK AO2 SLP123 T02500183
KAEX 242153Z 22013G19KT 10SM FEW037 SCT070 BKN100 25/18 A2989 RMK AO2 PK WND 19032/2134 RAE01B34E47 SLP123 P0000 T02500183
KAEX 242053Z 19021G26KT 10SM -RA FEW025 SCT060 SCT075 27/18 A2987 RMK AO2 PK WND 19030/2033 RAB39 SLP118 P0000 60000 T02670178 56026
KAEX 241953Z 20016G20KT 10SM FEW075 SCT090 27/19 A2989 RMK AO2 RAB12E22 SLP124 P0000 T02670194
KAEX 241853Z 19012KT 10SM BKN035 BKN049 26/20 A2992 RMK AO2 SLP132 T02610200
KAEX 241753Z 17016KT 10SM FEW033 SCT040 BKN047 25/19 A2995 RMK AO2 RAB43E52 SLP145 P0000 60000 T02500194 10256 20211 58020
KAEX 241653Z 17016G23KT 10SM FEW030 BKN037 OVC090 24/19 A2999 RMK AO2 SLP157 T02440194
KAEX 241553Z 18015G23KT 10SM FEW023 SCT070 BKN090 24/19 A3000 RMK AO2 SLP160 T02440194
KAEX 241522Z 18012G19KT 9SM SCT019 SCT025 BKN042 23/19 A3000 RMK AO2 T02330194
KAEX 241453Z 18013KT 9SM SCT019 BKN024 23/20 A3001 RMK AO2 SLP165 T02280200 58001
KAEX 241451Z 18013KT 9SM FEW014 SCT019 BKN023 23/20 A3001 RMK AO2
KAEX 241404Z 16010KT 7SM SCT014 BKN090 22/21 A3002 RMK AO2 T02220206
KAEX 241353Z 16009KT 7SM SCT016 BKN026 BKN090 22/21 A3002 RMK AO2 SLP169 T02220206
KAEX 241312Z 16008KT 7SM BKN018 BKN025 OVC090 21/20 A3002 RMK AO2 T02110200
KAEX 241253Z 16008KT 7SM FEW017 SCT023 OVC085 21/20 A3001 RMK AO2 SLP166 T02110200
KAEX 241211Z 16008KT 9SM SCT017 OVC085 22/20 A3001 RMK AO2 T02170200
KAEX 241153Z 17008KT 9SM BKN017 BKN032 OVC085 22/20 A3001 RMK AO2 SLP164 70001 T02170200 10217 20206 55003
KAEX 241053Z AUTO 17009KT 9SM BKN016 BKN028 OVC050 22/20 A3000 RMK AO2 SLP162 T02170200
KAEX 240953Z 16008KT 9SM BKN018 OVC045 22/20 A3001 RMK AO2 SLP164 T02170200
KAEX 240853Z 15006KT 7SM BKN016 OVC024 21/21 A3002 RMK AO2 SLP167 T02060206 58015
KAEX 240808Z 15007KT 7SM BKN015 OVC023 21/20 A3003 RMK AO2 T02060200
KAEX 240753Z 16005KT 7SM OVC013 21/20 A3003 RMK AO2 SLP171 T02060200
KAEX 240653Z 15006KT 8SM BKN013 OVC021 21/20 A3005 RMK AO2 SLP179 T02060200
KAEX 240553Z 15008KT 8SM BKN011 BKN020 21/20 A3006 RMK AO2 SLP182 T02060200 10228 20189 402670183 58010
KAEX 240546Z 15009KT 8SM BKN011 BKN020 21/20 A3006 RMK AO2 T02060200
KAEX 240530Z 15008KT 8SM SCT011 21/19 A3006 RMK AO2 T02060194
KAEX 240453Z 16007KT 9SM BKN012 21/19 A3008 RMK AO2 SLP188 T02110194
KAEX 240353Z 16007KT 10SM BKN050 19/19 A3009 RMK AO2 SLP191 T01940189
KAEX 240253Z 16007KT 10SM CLR 21/19 A3009 RMK AO2 SLP192 T02110189 53001
KAEX 240153Z 15006KT 10SM CLR 21/19 A3009 RMK AO2 SLP191 T02060189